Wykoff, Minnesota
Current Conditions -  °F | °C
As of 7:55 PM on Saturday 22 Nov 2014 (Local Time) from KFKA Reporting Station
Haze Haze  
Wind Chill: 31°   Ceiling: 200
Heat Index: 38°   Visibility: 2mi
Dew Point: 38°   Wind: 10mph
Humidity: 97%   Direction: 180°S
Pressure: 29.65"   Gusts: NA
Location:  43.71°N, 92.27°W
Report Text: KFKA 230155Z AUTO 18009KT 2SM BR OVC002 04/03 A2965 RMK AO2 T00350031
Loading
Personal Weather Stations






























Interactive Weather Map New forecast layout! Learn more

10-Day Weather Forecast

Advertisements
Track Severe Weather on mobile